Aviation Digital Data Service (ADDS)

Output produced by METARs form (1711 UTC 29 May 2017)
found at http://www.aviationweather.gov/adds/metars/
 
EIME 291700Z 27011KT 9999 FEW007 BKN017 15/12 Q1010
TAF COR EIME 291454Z 2915/2924 26007KT 9999 SCT012 BKN020 
     TEMPO 2915/2918 VRB03KT
       
EIKN 291700Z 27009KT 9999 SCT023 BKN045 15/10 Q1010 NOSIG
TAF EIKN 291700Z 2918/3018 26007KT 9999 FEW012 BKN020 
     BECMG 3000/3003 21007KT 4000 -RA BR BKN007 
     TEMPO 3002/3009 1200 -RADZ BKN002 
     BECMG 3008/3011 31010KT 9999 BKN020
       
EICK 291700Z 19006KT 160V230 9999 FEW007 BKN013 BKN030 14/12 Q1011 NOSIG
TAF EICK 291700Z 2918/3018 24008KT 9999 SCT012 BKN020 
     TEMPO 2918/3001 BKN012 
     PROB40 
     TEMPO 2922/3001 BKN008 
     BECMG 3002/3005 BKN008 
     TEMPO 3004/3009 4000 -RA BKN004 
     BECMG 3010/3012 30012KT 9999 BKN020
       
EIDL 291700Z 33005KT 9999 OVC007 13/11 Q1010
TAF EIDL 291400Z 2915/2921 35008KT 9999 BKN030
       
EIDW 291700Z 27011KT 9999 FEW008 SCT014 BKN017 16/12 Q1010 NOSIG
TAF EIDW 291700Z 2918/3018 26008KT 9999 FEW008 BKN015 
     PROB40 
     TEMPO 2918/3003 BKN012 
     TEMPO 3003/3007 BKN012 
     BECMG 3006/3008 26015KT 
     PROB30 3010/3012 26015G25KT BKN012 
     BECMG 3012/3014 30012KT
       
EIKY 291700Z 32003KT 290V360 9999 BKN022 BKN028 14/11 Q1011
TAF EIKY 291400Z 2915/2921 VRB03KT 9999 SCT020 BKN030 
     BECMG 2915/2917 28008KT 
     PROB30 
     TEMPO 2917/2921 BKN012
       
EINN 291700Z 26008KT 9999 FEW025 BKN040 16/12 Q1011 NOSIG
TAF EINN 291700Z 2918/3018 22007KT 9999 FEW012 BKN025 
     TEMPO 2920/3002 BKN012 
     BECMG 3002/3005 19008KT BKN012 
     TEMPO 3003/3008 5000 -RA BKN007 
     BECMG 3006/3008 27010KT 
     BECMG 3009/3011 30010KT SCT010 BKN020
       
EISG 291630Z 33005KT 300V360 CAVOK 15/11 Q1010
TAF AMD EISG 291354Z 2915/2924 VRB03KT 9999 BKN040 
     TEMPO 2915/2919 34005KT
       
EIWF 291700Z 24007KT 190V300 9999 BKN021 14/12 Q1011
TAF EIWF 291400Z 2915/2924 22008KT 9999 FEW012 BKN018 
     PROB40 
     TEMPO 2920/2924 BKN007